Time;durP1;ratioP1;P1;durP2;ratioP2;P2;SDS_P1;SDS_P2;PMS_P1;PMS_P2;Temp;Humidity;BMP_temperature;BMP_pressure;BME280_temperature;BME280_humidity;BME280_pressure;Samples;Min_cycle;Max_cycle;Signal;HPM_P1;HPM_P2
2022/09/13 00:02:12;;;;;;;;;;;18.60;99.90;;;;;;5095802;28;19912;-73
2022/09/13 00:04:37;;;;;;;;;;;18.50;99.90;;;;;;5108491;28;19916;-74
2022/09/13 00:07:03;;;;;;;;;;;18.50;99.90;;;;;;5099511;28;19912;-74
2022/09/13 00:09:28;;;;;;;;;;;18.50;99.90;;;;;;5094629;28;20339;-74
2022/09/13 00:11:54;;;;;;;;;;;18.70;99.90;;;;;;5098568;28;20008;-74
2022/09/13 00:14:20;;;;;;;;;;;18.70;99.90;;;;;;5100348;28;20241;-73
2022/09/13 00:16:45;;;;;;;;;;;18.70;99.90;;;;;;5087167;28;19964;-73
2022/09/13 00:19:11;;;;;;;;;;;18.60;99.90;;;;;;5104742;28;19944;-74
2022/09/13 00:21:36;;;;;;;;;;;18.40;99.90;;;;;;5109209;28;19965;-74
2022/09/13 00:24:02;;;;;;;;;;;18.20;99.90;;;;;;5105220;28;19970;-73
2022/09/13 00:26:27;;;;;;;;;;;18.20;99.90;;;;;;5085044;28;20321;-73
2022/09/13 00:28:55;;;;;;;;;;;18.20;99.90;;;;;;5106567;28;20253;-73
2022/09/13 00:31:22;;;;;;;;;;;18.10;99.90;;;;;;5100596;28;20359;-73
2022/09/13 00:33:48;;;;;;;;;;;18.10;99.90;;;;;;5099344;28;19916;-73
2022/09/13 00:36:14;;;;;;;;;;;18.10;99.90;;;;;;5079879;28;20335;-74
2022/09/13 00:38:40;;;;;;;;;;;18.20;99.90;;;;;;5098642;28;19964;-73
2022/09/13 00:41:07;;;;;;;;;;;18.20;99.90;;;;;;5099301;28;19965;-73
2022/09/13 00:43:41;;;;;;;;;;;18.10;99.90;;;;;;5098150;28;19920;-74
2022/09/13 00:46:06;;;;;;;;;;;18.10;99.90;;;;;;5097348;28;19919;-73
2022/09/13 00:48:33;;;;;;;;;;;18.00;99.90;;;;;;5089398;28;19911;-73
2022/09/13 00:50:59;;;;;;;;;;;18.00;99.90;;;;;;5094124;28;20006;-73
2022/09/13 00:53:28;;;;;;;;;;;18.00;99.90;;;;;;5107834;28;20015;-74
2022/09/13 00:55:54;;;;;;;;;;;18.00;99.90;;;;;;5111720;28;20359;-73
2022/09/13 00:58:22;;;;;;;;;;;18.10;99.90;;;;;;5100029;28;19920;-74
2022/09/13 01:00:48;;;;;;;;;;;18.10;99.90;;;;;;5095095;28;20012;-74
2022/09/13 01:03:15;;;;;;;;;;;18.10;99.90;;;;;;5096158;28;19920;-74
2022/09/13 01:05:42;;;;;;;;;;;18.10;99.90;;;;;;5082348;28;20222;-73
2022/09/13 01:08:16;;;;;;;;;;;18.10;99.90;;;;;;5083049;28;19923;-73
2022/09/13 01:10:43;;;;;;;;;;;18.00;99.90;;;;;;5108127;28;19919;-73
2022/09/13 01:13:13;;;;;;;;;;;18.00;99.90;;;;;;5100542;28;19999;-73
2022/09/13 01:15:40;;;;;;;;;;;18.10;99.90;;;;;;5112577;28;19978;-74
2022/09/13 01:18:06;;;;;;;;;;;18.00;99.90;;;;;;5111533;28;19912;-73
2022/09/13 01:20:42;;;;;;;;;;;18.00;99.90;;;;;;5091341;28;19926;-74
2022/09/13 01:23:16;;;;;;;;;;;18.00;99.90;;;;;;5081920;28;21189;-74
2022/09/13 01:25:54;;;;;;;;;;;18.10;99.90;;;;;;5112036;28;20320;-73
2022/09/13 01:28:32;;;;;;;;;;;18.20;99.90;;;;;;5106558;28;20361;-74
2022/09/13 01:31:06;;;;;;;;;;;18.20;99.90;;;;;;5106974;28;19923;-73
2022/09/13 01:33:41;;;;;;;;;;;18.10;99.90;;;;;;5110824;28;19916;-73
2022/09/13 01:36:15;;;;;;;;;;;18.00;99.90;;;;;;5108520;28;20195;-73
2022/09/13 01:38:52;;;;;;;;;;;18.00;99.90;;;;;;5112227;28;19912;-73
2022/09/13 01:41:18;;;;;;;;;;;17.90;99.90;;;;;;5089492;28;19915;-73
2022/09/13 01:44:02;;;;;;;;;;;17.90;99.90;;;;;;5086732;28;20329;-73
2022/09/13 01:46:48;;;;;;;;;;;17.90;99.90;;;;;;5112955;28;19969;-74
2022/09/13 01:49:19;;;;;;;;;;;18.00;99.90;;;;;;5106720;28;19923;-74
2022/09/13 01:51:48;;;;;;;;;;;17.90;99.90;;;;;;5104037;28;20310;-73
2022/09/13 01:54:16;;;;;;;;;;;17.90;99.90;;;;;;5093629;28;20018;-73
2022/09/13 01:56:48;;;;;;;;;;;17.90;99.90;;;;;;5113857;28;19954;-73
2022/09/13 01:59:21;;;;;;;;;;;17.90;99.90;;;;;;5093541;28;19916;-74
2022/09/13 02:02:06;;;;;;;;;;;17.80;99.90;;;;;;5111653;28;20225;-74
2022/09/13 02:04:37;;;;;;;;;;;17.80;99.90;;;;;;5086423;28;20256;-74
2022/09/13 02:07:06;;;;;;;;;;;17.90;99.90;;;;;;5105335;28;20366;-74
2022/09/13 02:09:35;;;;;;;;;;;18.00;99.90;;;;;;5095581;28;19920;-74
2022/09/13 02:12:16;;;;;;;;;;;18.10;99.90;;;;;;5099666;28;19912;-74
2022/09/13 02:14:43;;;;;;;;;;;18.10;99.90;;;;;;5080630;28;19912;-74
2022/09/13 02:17:12;;;;;;;;;;;18.10;99.90;;;;;;5109550;28;19919;-74
2022/09/13 02:19:40;;;;;;;;;;;18.10;99.90;;;;;;5107926;28;20002;-74
2022/09/13 02:22:07;;;;;;;;;;;18.00;99.90;;;;;;5085869;28;19912;-73
2022/09/13 02:24:35;;;;;;;;;;;18.10;99.90;;;;;;5088920;28;19912;-74
2022/09/13 02:27:04;;;;;;;;;;;18.10;99.90;;;;;;5110751;28;19916;-74
2022/09/13 02:29:31;;;;;;;;;;;18.10;99.90;;;;;;5109135;28;20002;-74
2022/09/13 02:32:15;;;;;;;;;;;18.00;99.90;;;;;;5109412;28;20012;-74
2022/09/13 02:34:44;;;;;;;;;;;18.00;99.90;;;;;;5102279;28;20208;-74
2022/09/13 02:37:11;;;;;;;;;;;17.90;99.90;;;;;;5098887;28;19919;-74
2022/09/13 02:39:40;;;;;;;;;;;17.80;99.90;;;;;;5109907;28;19961;-74
2022/09/13 02:42:14;;;;;;;;;;;17.80;99.90;;;;;;5108688;28;20180;-74
2022/09/13 02:44:44;;;;;;;;;;;17.70;99.90;;;;;;5085164;28;20332;-74
2022/09/13 02:47:11;;;;;;;;;;;17.60;99.90;;;;;;5111907;28;19916;-74
2022/09/13 02:49:45;;;;;;;;;;;17.50;99.90;;;;;;5105812;28;19916;-73
2022/09/13 02:52:16;;;;;;;;;;;17.60;99.90;;;;;;5099481;28;19908;-74
2022/09/13 02:54:54;;;;;;;;;;;17.60;99.90;;;;;;5105802;28;19912;-74
2022/09/13 02:57:22;;;;;;;;;;;17.60;99.90;;;;;;5086168;28;19920;-74
2022/09/13 02:59:48;;;;;;;;;;;17.50;99.90;;;;;;5104462;28;19916;-74
2022/09/13 03:02:15;;;;;;;;;;;17.60;99.90;;;;;;5090585;28;19918;-74
2022/09/13 03:04:41;;;;;;;;;;;17.50;99.90;;;;;;5104994;28;19954;-74
2022/09/13 03:07:11;;;;;;;;;;;17.50;99.90;;;;;;5099836;28;20061;-73
2022/09/13 03:09:39;;;;;;;;;;;17.60;99.90;;;;;;5098579;28;19916;-74
2022/09/13 03:12:13;;;;;;;;;;;17.60;99.90;;;;;;5103053;28;19916;-73
2022/09/13 03:14:45;;;;;;;;;;;17.60;99.90;;;;;;5107640;28;20277;-73
2022/09/13 03:17:20;;;;;;;;;;;17.60;99.90;;;;;;5084165;28;20064;-73
2022/09/13 03:20:00;;;;;;;;;;;17.60;99.90;;;;;;5085159;28;19920;-74
2022/09/13 03:22:51;;;;;;;;;;;17.60;99.90;;;;;;5097290;28;19994;-74
2022/09/13 03:25:31;;;;;;;;;;;17.60;99.90;;;;;;5088305;28;20117;-74
2022/09/13 03:28:02;;;;;;;;;;;17.60;99.90;;;;;;5088857;28;19951;-74
2022/09/13 03:30:28;;;;;;;;;;;17.60;99.90;;;;;;5087548;28;19964;-74
2022/09/13 03:33:02;;;;;;;;;;;17.70;99.90;;;;;;5097769;28;19963;-74
2022/09/13 03:35:28;;;;;;;;;;;17.70;99.90;;;;;;5081929;28;19918;-74
2022/09/13 03:38:00;;;;;;;;;;;17.70;99.90;;;;;;5108213;28;19927;-74
2022/09/13 03:40:35;;;;;;;;;;;17.70;99.90;;;;;;5081011;28;19919;-73
2022/09/13 03:43:10;;;;;;;;;;;17.60;99.90;;;;;;5112812;28;20028;-73
2022/09/13 03:45:40;;;;;;;;;;;17.60;99.90;;;;;;5108460;28;19923;-73
2022/09/13 03:48:06;;;;;;;;;;;17.60;99.90;;;;;;5114760;28;19912;-73
2022/09/13 03:50:32;;;;;;;;;;;17.60;99.90;;;;;;5116148;28;20303;-73
2022/09/13 03:52:59;;;;;;;;;;;17.70;99.90;;;;;;5112127;28;19949;-73
2022/09/13 03:55:26;;;;;;;;;;;17.70;99.90;;;;;;5103533;28;19916;-74
2022/09/13 03:57:51;;;;;;;;;;;17.70;99.90;;;;;;5075525;28;19952;-73
2022/09/13 04:00:17;;;;;;;;;;;17.70;99.90;;;;;;5095935;28;19947;-73
2022/09/13 04:02:43;;;;;;;;;;;17.70;99.90;;;;;;5105126;28;19978;-73
2022/09/13 04:05:08;;;;;;;;;;;17.60;99.90;;;;;;5107981;28;19912;-74
2022/09/13 04:07:34;;;;;;;;;;;17.50;99.90;;;;;;5106117;28;20010;-74
2022/09/13 04:10:00;;;;;;;;;;;17.50;99.90;;;;;;5076401;28;19967;-73
2022/09/13 04:12:27;;;;;;;;;;;17.50;99.90;;;;;;5081888;28;19998;-74
2022/09/13 04:14:52;;;;;;;;;;;17.50;99.90;;;;;;5108543;28;19927;-73
2022/09/13 04:17:18;;;;;;;;;;;17.40;99.90;;;;;;5108644;28;19920;-74
2022/09/13 04:19:45;;;;;;;;;;;17.40;99.90;;;;;;5084002;28;20023;-73
2022/09/13 04:22:11;;;;;;;;;;;17.40;99.90;;;;;;5087817;28;19912;-74
2022/09/13 04:24:38;;;;;;;;;;;17.30;99.90;;;;;;5120516;27;19915;-74
2022/09/13 04:27:04;;;;;;;;;;;17.30;99.90;;;;;;5101736;28;20844;-74
2022/09/13 04:29:30;;;;;;;;;;;17.30;99.90;;;;;;5107055;28;19922;-73
2022/09/13 04:31:56;;;;;;;;;;;17.40;99.90;;;;;;5107791;28;20295;-74
2022/09/13 04:34:22;;;;;;;;;;;17.30;99.90;;;;;;5104386;28;19965;-74
2022/09/13 04:36:48;;;;;;;;;;;17.30;99.90;;;;;;5109368;28;19993;-74
2022/09/13 04:39:14;;;;;;;;;;;17.20;99.90;;;;;;5104466;28;19994;-74
2022/09/13 04:41:40;;;;;;;;;;;17.20;99.90;;;;;;5100686;28;19999;-74
2022/09/13 04:44:05;;;;;;;;;;;17.20;99.90;;;;;;5113213;28;19912;-74
2022/09/13 04:46:31;;;;;;;;;;;17.10;99.90;;;;;;5105384;28;21545;-74
2022/09/13 04:48:57;;;;;;;;;;;17.20;99.90;;;;;;5104490;28;19912;-74
2022/09/13 04:51:22;;;;;;;;;;;17.20;99.90;;;;;;5096781;28;19922;-74
2022/09/13 04:53:53;;;;;;;;;;;17.20;99.90;;;;;;5110815;28;19915;-73
2022/09/13 04:56:19;;;;;;;;;;;17.20;99.90;;;;;;5111078;28;20014;-74
2022/09/13 04:58:44;;;;;;;;;;;17.10;99.90;;;;;;5091422;28;20006;-74
2022/09/13 05:01:10;;;;;;;;;;;17.20;99.90;;;;;;5108090;28;19919;-74
2022/09/13 05:03:37;;;;;;;;;;;17.10;99.90;;;;;;5099914;28;19908;-73
2022/09/13 05:06:07;;;;;;;;;;;17.10;99.90;;;;;;5099836;28;19923;-74
2022/09/13 05:08:33;;;;;;;;;;;17.10;99.90;;;;;;5110407;28;19916;-74
2022/09/13 05:10:59;;;;;;;;;;;17.10;99.90;;;;;;5104105;28;19908;-74
2022/09/13 05:13:25;;;;;;;;;;;17.20;99.90;;;;;;5103913;28;19965;-74
2022/09/13 05:15:57;;;;;;;;;;;17.20;99.90;;;;;;5096192;28;19955;-74
2022/09/13 05:18:30;;;;;;;;;;;17.20;99.90;;;;;;5094883;28;19912;-74
2022/09/13 05:20:57;;;;;;;;;;;17.20;99.90;;;;;;5094154;28;19920;-73
2022/09/13 05:23:23;;;;;;;;;;;17.30;99.90;;;;;;5104579;28;20239;-73
2022/09/13 05:26:15;;;;;;;;;;;17.30;99.90;;;;;;5105436;28;19919;-74
2022/09/13 05:28:40;;;;;;;;;;;17.40;99.90;;;;;;5095500;28;19951;-73
2022/09/13 05:31:08;;;;;;;;;;;17.50;99.90;;;;;;5099656;28;19955;-74
2022/09/13 05:33:34;;;;;;;;;;;17.50;99.90;;;;;;5105433;28;19915;-74
2022/09/13 05:36:00;;;;;;;;;;;17.50;99.90;;;;;;5095250;28;19923;-74
2022/09/13 05:38:26;;;;;;;;;;;17.60;99.90;;;;;;5095875;28;19912;-74
2022/09/13 05:40:55;;;;;;;;;;;17.50;99.90;;;;;;5092673;28;19920;-74
2022/09/13 05:43:22;;;;;;;;;;;17.60;99.90;;;;;;5101589;28;19916;-74
2022/09/13 05:45:48;;;;;;;;;;;17.70;99.90;;;;;;5096224;28;19912;-74
2022/09/13 05:48:13;;;;;;;;;;;17.70;99.90;;;;;;5078819;28;19920;-74
2022/09/13 05:50:39;;;;;;;;;;;17.80;99.90;;;;;;5097372;28;19918;-74
2022/09/13 05:53:05;;;;;;;;;;;17.90;99.90;;;;;;5099057;28;20014;-74
2022/09/13 05:55:31;;;;;;;;;;;17.90;99.90;;;;;;5093467;28;19915;-74
2022/09/13 05:57:57;;;;;;;;;;;18.00;99.90;;;;;;5104645;28;20265;-74
2022/09/13 06:00:23;;;;;;;;;;;18.10;99.90;;;;;;5100917;28;19912;-74
2022/09/13 06:02:49;;;;;;;;;;;18.10;99.90;;;;;;5077589;28;19964;-74
2022/09/13 06:05:14;;;;;;;;;;;18.10;99.90;;;;;;5099937;28;19919;-73
2022/09/13 06:07:41;;;;;;;;;;;18.10;99.90;;;;;;5078376;28;20223;-74
2022/09/13 06:10:07;;;;;;;;;;;18.10;99.90;;;;;;5100213;28;19919;-74
2022/09/13 06:12:33;;;;;;;;;;;18.20;99.90;;;;;;5104690;28;19919;-74
2022/09/13 06:14:59;;;;;;;;;;;18.30;99.90;;;;;;5107113;28;19916;-74
2022/09/13 06:17:24;;;;;;;;;;;18.40;99.90;;;;;;5100735;28;19919;-74
2022/09/13 06:19:50;;;;;;;;;;;18.50;99.90;;;;;;5107142;28;20311;-74
2022/09/13 06:22:16;;;;;;;;;;;18.50;99.90;;;;;;5103637;28;19916;-73
2022/09/13 06:24:42;;;;;;;;;;;18.50;99.90;;;;;;5093003;28;19942;-73
2022/09/13 06:27:09;;;;;;;;;;;18.50;99.90;;;;;;5100175;28;19916;-73
2022/09/13 06:29:35;;;;;;;;;;;18.50;99.90;;;;;;5097920;28;20298;-74
2022/09/13 06:32:01;;;;;;;;;;;18.50;99.90;;;;;;5100141;28;20012;-73
2022/09/13 06:34:27;;;;;;;;;;;18.50;99.90;;;;;;5103007;28;19912;-73
2022/09/13 06:36:52;;;;;;;;;;;18.70;99.90;;;;;;5101546;28;19961;-73
2022/09/13 06:39:18;;;;;;;;;;;18.60;99.90;;;;;;5098908;28;19916;-73
2022/09/13 06:41:43;;;;;;;;;;;18.60;99.90;;;;;;5081740;28;19969;-73
2022/09/13 06:44:09;;;;;;;;;;;18.60;99.90;;;;;;5100144;28;20196;-73
2022/09/13 06:46:34;;;;;;;;;;;18.60;99.90;;;;;;5089972;28;19912;-73
2022/09/13 06:49:01;;;;;;;;;;;18.70;99.90;;;;;;5104843;28;19916;-74
2022/09/13 06:51:28;;;;;;;;;;;18.70;99.90;;;;;;5115106;27;19947;-75
2022/09/13 06:53:57;;;;;;;;;;;18.80;99.90;;;;;;5101437;28;19997;-73
2022/09/13 06:56:27;;;;;;;;;;;18.80;99.90;;;;;;5111530;28;19932;-74
2022/09/13 06:58:56;;;;;;;;;;;18.80;99.90;;;;;;5108026;28;19908;-73
2022/09/13 07:01:23;;;;;;;;;;;18.80;99.90;;;;;;5088556;28;19912;-74
2022/09/13 07:03:50;;;;;;;;;;;18.80;99.90;;;;;;5104782;28;20351;-74
2022/09/13 07:06:20;;;;;;;;;;;18.80;99.90;;;;;;5084547;28;20188;-74
2022/09/13 07:08:47;;;;;;;;;;;18.90;99.90;;;;;;5109328;28;19973;-74
2022/09/13 07:11:13;;;;;;;;;;;18.90;99.90;;;;;;5108493;28;19912;-73
2022/09/13 07:13:39;;;;;;;;;;;18.90;99.90;;;;;;5101385;28;20535;-74
2022/09/13 07:16:09;;;;;;;;;;;18.90;99.90;;;;;;5092601;28;19920;-73
2022/09/13 07:18:35;;;;;;;;;;;18.90;99.90;;;;;;5082423;28;20006;-73
2022/09/13 07:21:05;;;;;;;;;;;19.00;99.90;;;;;;5106776;28;20259;-73
2022/09/13 07:23:31;;;;;;;;;;;19.00;99.90;;;;;;5108565;28;19916;-73
2022/09/13 07:26:00;;;;;;;;;;;19.10;99.90;;;;;;5079903;28;20303;-73
2022/09/13 07:28:30;;;;;;;;;;;19.20;99.90;;;;;;5109006;28;20306;-74
2022/09/13 07:31:02;;;;;;;;;;;19.20;99.90;;;;;;5094702;28;19916;-74
2022/09/13 07:33:28;;;;;;;;;;;19.10;99.90;;;;;;5082395;28;19916;-74
2022/09/13 07:35:54;;;;;;;;;;;19.20;99.90;;;;;;5111466;28;19979;-73
2022/09/13 07:38:20;;;;;;;;;;;19.30;99.90;;;;;;5088432;28;19923;-73
2022/09/13 07:40:52;;;;;;;;;;;19.40;99.90;;;;;;5113863;28;19908;-73
2022/09/13 07:43:18;;;;;;;;;;;19.60;99.90;;;;;;5106671;28;20487;-74
2022/09/13 07:45:43;;;;;;;;;;;19.70;99.90;;;;;;5103303;28;19919;-74
2022/09/13 07:48:09;;;;;;;;;;;19.80;99.90;;;;;;5104839;28;19916;-73
2022/09/13 07:50:34;;;;;;;;;;;19.70;99.90;;;;;;5112540;28;19996;-72
2022/09/13 07:53:00;;;;;;;;;;;19.70;99.90;;;;;;5104921;28;20306;-73
2022/09/13 07:55:26;;;;;;;;;;;19.70;99.90;;;;;;5115169;27;19911;-73
2022/09/13 07:57:51;;;;;;;;;;;19.70;99.90;;;;;;5104104;28;20006;-74
2022/09/13 08:00:17;;;;;;;;;;;19.80;99.90;;;;;;5083863;28;19927;-73
2022/09/13 08:02:42;;;;;;;;;;;19.90;99.90;;;;;;5108098;28;20326;-73
2022/09/13 08:05:08;;;;;;;;;;;20.00;99.90;;;;;;5107455;28;19956;-73
2022/09/13 08:07:34;;;;;;;;;;;20.10;99.90;;;;;;5111291;28;19915;-73
2022/09/13 08:09:59;;;;;;;;;;;20.10;99.90;;;;;;5112495;28;19955;-73
2022/09/13 08:12:25;;;;;;;;;;;20.20;99.90;;;;;;5112788;28;19915;-73
2022/09/13 08:14:50;;;;;;;;;;;20.60;99.90;;;;;;5101839;28;19920;-73
2022/09/13 08:17:16;;;;;;;;;;;20.80;99.90;;;;;;5080094;28;19928;-74
2022/09/13 08:19:41;;;;;;;;;;;20.80;99.90;;;;;;5095157;28;19951;-74
2022/09/13 08:22:07;;;;;;;;;;;20.90;99.90;;;;;;5109054;28;20363;-73
2022/09/13 08:24:32;;;;;;;;;;;21.00;99.90;;;;;;5095564;28;19916;-73
2022/09/13 08:26:58;;;;;;;;;;;21.10;99.90;;;;;;5084652;28;19920;-73
2022/09/13 08:29:24;;;;;;;;;;;21.20;99.90;;;;;;5079653;28;19912;-73
2022/09/13 08:31:49;;;;;;;;;;;21.20;99.90;;;;;;5086361;28;20309;-73
2022/09/13 08:34:15;;;;;;;;;;;21.20;99.90;;;;;;5098038;28;20010;-74
2022/09/13 08:36:42;;;;;;;;;;;21.20;99.90;;;;;;5110464;28;19919;-73
2022/09/13 08:39:07;;;;;;;;;;;21.20;99.90;;;;;;5101980;28;19907;-73
2022/09/13 08:41:40;;;;;;;;;;;21.20;99.90;;;;;;5101741;28;20073;-73
2022/09/13 08:44:09;;;;;;;;;;;21.20;99.90;;;;;;5096089;28;19959;-74
2022/09/13 08:46:38;;;;;;;;;;;21.10;99.90;;;;;;5089103;28;19922;-73
2022/09/13 08:49:05;;;;;;;;;;;21.10;99.90;;;;;;5107959;28;19927;-72
2022/09/13 08:51:37;;;;;;;;;;;20.80;99.90;;;;;;5089162;28;19923;-74
2022/09/13 08:54:02;;;;;;;;;;;20.60;99.90;;;;;;5097240;28;20214;-75
2022/09/13 08:56:37;;;;;;;;;;;20.40;99.90;;;;;;5075701;28;19924;-73
2022/09/13 08:59:11;;;;;;;;;;;20.20;99.90;;;;;;5097517;28;19911;-73
2022/09/13 09:01:42;;;;;;;;;;;20.20;99.90;;;;;;5107525;28;20020;-72
2022/09/13 09:04:11;;;;;;;;;;;20.20;99.90;;;;;;5094782;28;19952;-74
2022/09/13 09:06:36;;;;;;;;;;;20.20;99.90;;;;;;5096093;28;19922;-77
2022/09/13 09:09:06;;;;;;;;;;;20.30;99.90;;;;;;5094721;28;19908;-74
2022/09/13 09:11:35;;;;;;;;;;;20.50;99.90;;;;;;5097944;28;19916;-74
2022/09/13 09:14:00;;;;;;;;;;;20.60;99.90;;;;;;5098536;28;19985;-73
2022/09/13 09:16:26;;;;;;;;;;;20.60;99.90;;;;;;5105933;28;19947;-73
2022/09/13 09:18:53;;;;;;;;;;;20.60;99.90;;;;;;5108224;28;19922;-73
2022/09/13 09:21:19;;;;;;;;;;;20.60;99.90;;;;;;5101944;28;19919;-73
2022/09/13 09:23:44;;;;;;;;;;;20.60;99.90;;;;;;5087304;28;19916;-73
2022/09/13 09:26:10;;;;;;;;;;;20.50;99.90;;;;;;5104229;28;19966;-73
2022/09/13 09:28:35;;;;;;;;;;;20.70;99.90;;;;;;5105273;28;19908;-73
2022/09/13 09:31:18;;;;;;;;;;;20.90;99.90;;;;;;5107053;28;19915;-74
2022/09/13 09:33:43;;;;;;;;;;;21.20;99.90;;;;;;5100910;28;19916;-74
2022/09/13 09:36:28;;;;;;;;;;;21.50;99.90;;;;;;5083496;28;19947;-73
2022/09/13 09:38:54;;;;;;;;;;;21.60;99.90;;;;;;5100848;28;19916;-74
2022/09/13 09:41:21;;;;;;;;;;;21.60;99.90;;;;;;5099466;28;20346;-73
2022/09/13 09:43:59;;;;;;;;;;;21.80;99.90;;;;;;5103341;28;19966;-73
2022/09/13 09:46:26;;;;;;;;;;;22.20;99.90;;;;;;5086259;28;19923;-74
2022/09/13 09:48:54;;;;;;;;;;;22.40;99.90;;;;;;5099596;28;19961;-73
2022/09/13 09:51:22;;;;;;;;;;;22.30;99.90;;;;;;5103962;28;19919;-72
2022/09/13 09:53:49;;;;;;;;;;;22.10;99.90;;;;;;5085325;28;19924;-73
2022/09/13 09:56:23;;;;;;;;;;;21.90;99.90;;;;;;5104664;28;20014;-74
2022/09/13 09:58:49;;;;;;;;;;;21.60;99.90;;;;;;5104333;28;19995;-74
2022/09/13 10:01:15;;;;;;;;;;;21.50;99.90;;;;;;5102900;28;20006;-76
2022/09/13 10:03:40;;;;;;;;;;;21.30;99.90;;;;;;5100480;28;19922;-74
2022/09/13 10:06:20;;;;;;;;;;;21.30;99.90;;;;;;5100472;28;19990;-73
2022/09/13 10:08:54;;;;;;;;;;;21.40;99.90;;;;;;5082948;28;19912;-73
2022/09/13 10:11:21;;;;;;;;;;;21.50;99.90;;;;;;5113061;28;19915;-74
2022/09/13 10:14:00;;;;;;;;;;;21.90;99.90;;;;;;5103615;28;20010;-73
2022/09/13 10:16:29;;;;;;;;;;;22.20;99.90;;;;;;5101728;28;20218;-74
2022/09/13 10:19:15;;;;;;;;;;;22.30;99.90;;;;;;5097805;28;19985;-73
2022/09/13 10:21:40;;;;;;;;;;;22.30;99.90;;;;;;5102685;28;19915;-74
2022/09/13 10:24:16;;;;;;;;;;;22.20;99.90;;;;;;5098275;28;19912;-73
2022/09/13 10:26:42;;;;;;;;;;;22.10;99.90;;;;;;5108318;28;20199;-74
2022/09/13 10:29:09;;;;;;;;;;;22.00;99.90;;;;;;5109308;28;20018;-75
2022/09/13 10:31:36;;;;;;;;;;;21.70;99.90;;;;;;5105654;28;19916;-73
2022/09/13 10:34:03;;;;;;;;;;;21.60;99.90;;;;;;5107087;28;20283;-73
2022/09/13 10:36:33;;;;;;;;;;;21.80;99.90;;;;;;5111693;27;19942;-73
2022/09/13 10:39:01;;;;;;;;;;;22.00;99.90;;;;;;5111842;28;19961;-73
2022/09/13 10:41:28;;;;;;;;;;;22.10;99.90;;;;;;5115458;28;20219;-74
2022/09/13 10:43:58;;;;;;;;;;;22.20;99.90;;;;;;5085060;28;19916;-73
2022/09/13 10:46:25;;;;;;;;;;;22.20;99.90;;;;;;5103153;28;19916;-74
2022/09/13 10:48:54;;;;;;;;;;;22.30;99.90;;;;;;5109240;28;19912;-73
2022/09/13 10:51:26;;;;;;;;;;;22.20;99.90;;;;;;5110154;28;20002;-75
2022/09/13 10:54:09;;;;;;;;;;;22.10;99.90;;;;;;5085669;28;19919;-73
2022/09/13 10:56:35;;;;;;;;;;;22.10;99.90;;;;;;5106935;28;20242;-74
2022/09/13 10:59:20;;;;;;;;;;;22.30;99.90;;;;;;5091219;28;19919;-73
2022/09/13 11:02:03;;;;;;;;;;;22.30;99.90;;;;;;5093317;28;19908;-74
2022/09/13 11:04:49;;;;;;;;;;;22.10;99.90;;;;;;5108113;28;19919;-76
2022/09/13 11:07:24;;;;;;;;;;;22.10;99.90;;;;;;5109114;28;19922;-74
2022/09/13 11:09:57;;;;;;;;;;;22.10;99.90;;;;;;5091382;28;19916;-73
2022/09/13 11:12:29;;;;;;;;;;;22.30;99.90;;;;;;5101400;28;19915;-72
2022/09/13 11:15:01;;;;;;;;;;;22.20;99.90;;;;;;5093450;28;19914;-74
2022/09/13 11:17:59;;;;;;;;;;;22.10;99.90;;;;;;5108515;28;20005;-74
2022/09/13 11:20:34;;;;;;;;;;;22.30;99.90;;;;;;5018894;28;19925;-74
2022/09/13 11:22:59;;;;;;;;;;;22.40;99.90;;;;;;5017406;28;19952;-74
2022/09/13 11:25:47;;;;;;;;;;;22.30;99.90;;;;;;5017698;28;20042;-73
2022/09/13 11:28:23;;;;;;;;;;;22.00;99.90;;;;;;5024398;28;19917;-74
2022/09/13 11:31:24;;;;;;;;;;;21.60;99.90;;;;;;5030415;28;20435;-74
2022/09/13 11:33:53;;;;;;;;;;;21.50;99.90;;;;;;5012548;28;19918;-73
2022/09/13 11:36:33;;;;;;;;;;;21.60;99.90;;;;;;5028639;28;19931;-74
2022/09/13 11:39:01;;;;;;;;;;;21.80;99.90;;;;;;5026309;28;21591;-73
2022/09/13 11:41:30;;;;;;;;;;;22.10;99.90;;;;;;5032259;28;19909;-75
2022/09/13 11:44:02;;;;;;;;;;;22.20;99.90;;;;;;5031907;28;19959;-74
2022/09/13 11:46:38;;;;;;;;;;;22.20;99.90;;;;;;5007479;28;20305;-73
2022/09/13 11:49:06;;;;;;;;;;;22.10;99.90;;;;;;5030809;28;19924;-73
2022/09/13 11:51:47;;;;;;;;;;;22.30;99.90;;;;;;5033101;28;19959;-74
2022/09/13 11:54:25;;;;;;;;;;;22.50;99.90;;;;;;5029146;28;19913;-75
2022/09/13 11:57:20;;;;;;;;;;;22.70;99.90;;;;;;5093933;28;19927;-74
2022/09/13 12:00:01;;;;;;;;;;;22.60;99.90;;;;;;5064306;28;19916;-74
2022/09/13 12:02:27;;;;;;;;;;;22.30;99.90;;;;;;5097104;28;19922;-73
2022/09/13 12:04:59;;;;;;;;;;;22.00;99.90;;;;;;5080816;28;19916;-74
2022/09/13 12:07:30;;;;;;;;;;;21.80;99.90;;;;;;5100073;28;19916;-73
2022/09/13 12:09:59;;;;;;;;;;;21.60;99.90;;;;;;5095966;28;19919;-74
2022/09/13 12:12:28;;;;;;;;;;;21.50;99.90;;;;;;5094717;28;19912;-78
2022/09/13 12:14:58;;;;;;;;;;;21.40;99.90;;;;;;5077842;28;20302;-75
2022/09/13 12:17:26;;;;;;;;;;;21.20;99.90;;;;;;5079890;28;20337;-75
2022/09/13 12:19:53;;;;;;;;;;;21.30;99.90;;;;;;5098152;28;20210;-76
2022/09/13 12:22:21;;;;;;;;;;;21.50;99.90;;;;;;5096922;28;20403;-76
2022/09/13 12:24:52;;;;;;;;;;;21.50;99.90;;;;;;5083188;28;19919;-76
2022/09/13 12:27:17;;;;;;;;;;;21.70;99.90;;;;;;5098296;28;19908;-77
2022/09/13 12:29:47;;;;;;;;;;;21.60;99.90;;;;;;5077211;28;20208;-75
2022/09/13 12:32:14;;;;;;;;;;;21.70;99.90;;;;;;5085590;28;19994;-77
2022/09/13 12:34:49;;;;;;;;;;;21.90;99.90;;;;;;5099152;28;19916;-74
2022/09/13 12:37:15;;;;;;;;;;;21.90;99.90;;;;;;5114407;28;19965;-74
2022/09/13 12:39:41;;;;;;;;;;;22.10;99.90;;;;;;5115623;28;20010;-74
2022/09/13 12:42:19;;;;;;;;;;;21.90;99.90;;;;;;5091170;28;19999;-75
2022/09/13 12:44:54;;;;;;;;;;;21.60;99.90;;;;;;5087002;28;19922;-73
2022/09/13 12:47:38;;;;;;;;;;;21.80;99.90;;;;;;5100687;28;20362;-74
2022/09/13 12:50:10;;;;;;;;;;;21.90;99.90;;;;;;5114874;28;19951;-74
2022/09/13 12:52:43;;;;;;;;;;;21.90;99.90;;;;;;5103826;28;20199;-74
2022/09/13 12:55:15;;;;;;;;;;;22.10;99.90;;;;;;5111548;28;19979;-76
2022/09/13 12:58:03;;;;;;;;;;;22.10;99.90;;;;;;5094035;28;19912;-73
2022/09/13 13:00:32;;;;;;;;;;;22.00;99.90;;;;;;5092868;28;20329;-75
2022/09/13 13:03:04;;;;;;;;;;;21.80;99.90;;;;;;5096750;28;19916;-73
2022/09/13 13:05:30;;;;;;;;;;;21.70;99.90;;;;;;5109547;28;19916;-77
2022/09/13 13:08:06;;;;;;;;;;;21.80;99.90;;;;;;5076197;28;19918;-75
2022/09/13 13:10:36;;;;;;;;;;;21.90;99.90;;;;;;5094105;28;19931;-74
2022/09/13 13:13:10;;;;;;;;;;;22.20;99.90;;;;;;5093761;28;19915;-73
2022/09/13 13:15:35;;;;;;;;;;;22.30;99.90;;;;;;5087756;28;19995;-74
2022/09/13 13:18:39;;;;;;;;;;;22.40;99.90;;;;;;5093594;28;20037;-75
2022/09/13 13:21:20;;;;;;;;;;;22.50;99.90;;;;;;5045335;28;20002;-74
2022/09/13 13:23:45;;;;;;;;;;;22.30;99.90;;;;;;5029705;28;19967;-74
2022/09/13 13:26:31;;;;;;;;;;;22.00;99.90;;;;;;5048841;28;20331;-74
2022/09/13 13:29:02;;;;;;;;;;;22.00;99.90;;;;;;5047598;28;19912;-73
2022/09/13 13:31:30;;;;;;;;;;;22.10;99.90;;;;;;5045452;28;20633;-74
2022/09/13 13:34:21;;;;;;;;;;;22.20;99.90;;;;;;5030890;28;20377;-73
2022/09/13 13:36:51;;;;;;;;;;;22.20;99.90;;;;;;5049061;28;19913;-75
2022/09/13 13:39:23;;;;;;;;;;;21.90;99.90;;;;;;5031106;28;19991;-74
2022/09/13 13:41:56;;;;;;;;;;;21.90;99.90;;;;;;5045853;28;19913;-75
2022/09/13 13:44:22;;;;;;;;;;;22.00;99.90;;;;;;5047997;28;19919;-75
2022/09/13 13:46:48;;;;;;;;;;;22.10;99.90;;;;;;5049975;28;19917;-76
2022/09/13 13:49:29;;;;;;;;;;;22.20;99.90;;;;;;5042884;28;20288;-74
2022/09/13 13:52:10;;;;;;;;;;;22.30;99.90;;;;;;5055834;28;19916;-74
2022/09/13 13:54:44;;;;;;;;;;;22.30;99.90;;;;;;5101318;28;19947;-75
2022/09/13 13:57:22;;;;;;;;;;;22.00;99.90;;;;;;5094591;28;19932;-74
2022/09/13 13:59:49;;;;;;;;;;;22.00;99.90;;;;;;5093064;28;19965;-76
2022/09/13 14:02:19;;;;;;;;;;;22.10;99.90;;;;;;5096635;28;20006;-74
2022/09/13 14:04:48;;;;;;;;;;;22.00;99.90;;;;;;5098888;28;20027;-72
2022/09/13 14:07:28;;;;;;;;;;;21.90;99.90;;;;;;5094753;28;19955;-74
2022/09/13 14:09:58;;;;;;;;;;;21.70;99.90;;;;;;5079608;28;19969;-75
2022/09/13 14:12:33;;;;;;;;;;;21.70;99.90;;;;;;5081155;28;20477;-74
2022/09/13 14:15:05;;;;;;;;;;;21.70;99.90;;;;;;5093277;28;20199;-74
2022/09/13 14:17:46;;;;;;;;;;;21.70;99.90;;;;;;5102694;28;19919;-72
2022/09/13 14:20:15;;;;;;;;;;;21.60;99.90;;;;;;5101682;28;20010;-74
2022/09/13 14:22:40;;;;;;;;;;;21.40;99.90;;;;;;5105588;28;19962;-74
2022/09/13 14:25:22;;;;;;;;;;;21.30;99.90;;;;;;5092704;28;19939;-76
2022/09/13 14:27:48;;;;;;;;;;;21.30;99.90;;;;;;5106405;28;20282;-76
2022/09/13 14:30:18;;;;;;;;;;;21.50;99.90;;;;;;5101304;28;19916;-74
2022/09/13 14:32:45;;;;;;;;;;;21.60;99.90;;;;;;5092762;28;19960;-75